Time;durP1;ratioP1;P1;durP2;ratioP2;P2;SDS_P1;SDS_P2;PMS_P1;PMS_P2;Temp;Humidity;BMP_temperature;BMP_pressure;BME280_temperature;BME280_humidity;BME280_pressure;Samples;Min_cycle;Max_cycle;Signal;HPM_P1;HPM_P2
2021/08/27 00:02:17;;;;;;;2.97;2.87;;;15.70;99.90;;;;;;4981769;28;20175;-90
2021/08/27 00:04:43;;;;;;;3.57;3.27;;;13.90;99.90;;;;;;4966262;28;20177;-90
2021/08/27 00:07:08;;;;;;;5.07;3.37;;;16.30;99.90;;;;;;4965243;28;20236;-89
2021/08/27 00:09:34;;;;;;;4.40;1.93;;;15.60;99.90;;;;;;4994032;28;20277;-89
2021/08/27 00:12:00;;;;;;;4.00;2.40;;;14.20;99.90;;;;;;4985911;28;20211;-89
2021/08/27 00:14:26;;;;;;;4.70;2.33;;;16.50;99.90;;;;;;4985208;28;20209;-89
2021/08/27 00:16:52;;;;;;;3.27;2.80;;;12.90;99.90;;;;;;4982844;28;20177;-89
2021/08/27 00:19:18;;;;;;;3.57;2.40;;;14.80;99.90;;;;;;5003686;28;20466;-89
2021/08/27 00:21:43;;;;;;;2.93;2.77;;;13.80;99.90;;;;;;4984662;28;20515;-89
2021/08/27 00:24:09;;;;;;;3.90;2.17;;;13.80;99.90;;;;;;4983635;28;20180;-88
2021/08/27 00:26:37;;;;;;;2.50;2.40;;;13.40;99.90;;;;;;4983464;28;20213;-89
2021/08/27 00:29:03;;;;;;;2.57;2.30;;;16.30;99.90;;;;;;5007893;28;20170;-89
2021/08/27 00:31:29;;;;;;;5.60;3.17;;;14.70;99.90;;;;;;4985069;28;20424;-89
2021/08/27 00:33:55;;;;;;;3.80;2.60;;;14.00;99.90;;;;;;4999850;28;21429;-90
2021/08/27 00:36:21;;;;;;;5.50;2.50;;;12.30;99.90;;;;;;4981790;28;20456;-89
2021/08/27 00:38:47;;;;;;;2.83;2.63;;;14.90;99.90;;;;;;4999798;28;20165;-88
2021/08/27 00:41:12;;;;;;;5.57;3.47;;;14.80;99.90;;;;;;4983080;28;20424;-89
2021/08/27 00:43:39;;;;;;;3.30;2.57;;;13.50;99.90;;;;;;4982312;28;20260;-89
2021/08/27 00:46:04;;;;;;;3.47;3.17;;;14.90;99.90;;;;;;5002209;28;20655;-89
2021/08/27 00:48:32;;;;;;;2.60;2.50;;;15.80;99.90;;;;;;5001943;28;20412;-90
2021/08/27 00:50:58;;;;;;;6.00;2.20;;;14.90;99.90;;;;;;4983820;28;20178;-89
2021/08/27 00:53:24;;;;;;;3.37;3.07;;;12.60;99.90;;;;;;4989749;28;20422;-89
2021/08/27 00:55:49;;;;;;;4.40;3.43;;;14.90;99.90;;;;;;4990227;28;20219;-89
2021/08/27 00:58:23;;;;;;;3.30;2.13;;;15.00;99.90;;;;;;4993435;28;20169;-90
2021/08/27 01:00:51;;;;;;;2.80;2.60;;;14.60;99.90;;;;;;4993634;28;20240;-90
2021/08/27 01:03:35;;;;;;;8.03;3.33;;;16.60;99.90;;;;;;4996053;28;20413;-89
2021/08/27 01:06:21;;;;;;;7.50;3.13;;;12.20;99.90;;;;;;4995288;28;20425;-89
2021/08/27 01:09:06;;;;;;;3.90;3.50;;;12.60;99.90;;;;;;5013977;28;20416;-90
2021/08/27 01:11:51;;;;;;;4.03;2.70;;;12.80;99.90;;;;;;4979844;28;20443;-90
2021/08/27 01:14:31;;;;;;;3.60;2.80;;;13.30;99.90;;;;;;4991774;28;20459;-89
2021/08/27 01:17:06;;;;;;;3.03;2.30;;;14.00;99.90;;;;;;5008422;28;20412;-88
2021/08/27 01:20:07;;;;;;;3.17;2.53;;;13.40;99.90;;;;;;4990195;28;20787;-89
2021/08/27 01:23:11;;;;;;;2.63;2.50;;;13.70;99.90;;;;;;5007758;28;20492;-89
2021/08/27 01:25:41;;;;;;;12.70;4.55;;;13.20;99.90;;;;;;4942126;28;20394;-89
2021/08/27 01:28:09;;;;;;;8.00;4.80;;;13.00;99.90;;;;;;5003332;28;20462;-89
2021/08/27 01:31:17;;;;;;;5.50;4.53;;;13.10;99.90;;;;;;4989183;28;20383;-89
2021/08/27 01:34:14;;;;;;;2.73;2.27;;;13.20;99.90;;;;;;4995580;28;20172;-89
2021/08/27 01:36:42;;;;;;;3.90;3.47;;;13.40;99.90;;;;;;4995225;28;20451;-89
2021/08/27 01:39:11;;;;;;;2.97;2.77;;;14.20;99.90;;;;;;4997764;28;20417;-88
2021/08/27 01:41:43;;;;;;;2.57;2.47;;;13.30;99.90;;;;;;4960862;28;20440;-89
2021/08/27 01:44:13;;;;;;;4.00;3.10;;;13.10;99.90;;;;;;4981175;28;20435;-90
2021/08/27 01:46:47;;;;;;;2.63;2.43;;;13.60;99.90;;;;;;5014153;28;20416;-90
2021/08/27 01:49:17;;;;;;;2.97;2.77;;;16.70;99.90;;;;;;5007650;28;20420;-89
2021/08/27 01:51:44;;;;;;;3.60;3.30;;;13.30;99.90;;;;;;4974676;28;20470;-89
2021/08/27 01:54:10;;;;;;;5.70;3.17;;;15.60;99.90;;;;;;4993097;28;20235;-88
2021/08/27 01:56:40;;;;;;;5.10;4.60;;;14.30;99.90;;;;;;5013519;28;20423;-90
2021/08/27 01:59:10;;;;;;;4.17;3.87;;;13.60;99.90;;;;;;4994323;28;20415;-88
2021/08/27 02:01:39;;;;;;;4.67;4.27;;;15.10;99.90;;;;;;4998035;28;20404;-88
2021/08/27 02:04:11;;;;;;;6.53;4.60;;;13.50;99.90;;;;;;5001517;28;20443;-88
2021/08/27 02:06:41;;;;;;;5.93;4.07;;;11.80;99.90;;;;;;5000971;28;20433;-89
2021/08/27 02:09:13;;;;;;;5.40;3.10;;;14.70;99.90;;;;;;5001220;28;20467;-89
2021/08/27 02:11:40;;;;;;;4.17;3.37;;;13.50;99.90;;;;;;5000678;28;20409;-88
2021/08/27 02:14:06;;;;;;;5.70;3.20;;;13.20;99.90;;;;;;5000929;28;20515;-88
2021/08/27 02:16:35;;;;;;;5.17;3.10;;;14.60;99.90;;;;;;5001490;28;20423;-89
2021/08/27 02:19:02;;;;;;;4.90;4.50;;;14.50;99.90;;;;;;4998283;28;20466;-90
2021/08/27 02:21:37;;;;;;;4.50;3.73;;;13.50;99.90;;;;;;5012421;28;20404;-90
2021/08/27 02:24:13;;;;;;;9.70;4.70;;;15.30;99.90;;;;;;4991896;28;20427;-90
2021/08/27 02:26:44;;;;;;;8.65;5.60;;;13.20;99.90;;;;;;4987729;28;20447;-90
2021/08/27 02:29:11;;;;;;;3.93;3.70;;;13.50;99.90;;;;;;4989354;28;20417;-89
2021/08/27 02:31:43;;;;;;;4.20;3.80;;;12.70;99.90;;;;;;5007307;28;20409;-89
2021/08/27 02:34:18;;;;;;;9.70;5.57;;;14.20;99.90;;;;;;5007425;28;20451;-90
2021/08/27 02:36:46;;;;;;;7.87;4.50;;;12.60;99.90;;;;;;4991431;28;20416;-89
2021/08/27 02:39:18;;;;;;;4.60;3.90;;;12.80;99.90;;;;;;5007816;28;20461;-90
2021/08/27 02:41:49;;;;;;;5.07;3.57;;;13.20;99.90;;;;;;5009874;28;20193;-89
2021/08/27 02:44:24;;;;;;;6.73;4.90;;;14.70;99.90;;;;;;4992632;28;20417;-88
2021/08/27 02:46:50;;;;;;;4.23;3.30;;;12.60;99.90;;;;;;4996373;28;20429;-89
2021/08/27 02:49:21;;;;;;;2.93;2.73;;;14.40;99.90;;;;;;4994368;28;20413;-89
2021/08/27 02:52:14;;;;;;;7.10;4.27;;;13.20;99.90;;;;;;5015405;28;20154;-90
2021/08/27 02:55:09;;;;;;;6.03;3.23;;;13.20;99.90;;;;;;4994340;28;20448;-89
2021/08/27 02:57:51;;;;;;;2.63;2.53;;;12.80;99.90;;;;;;4992273;28;20428;-89
2021/08/27 03:00:26;;;;;;;3.33;3.00;;;11.50;99.90;;;;;;4965819;28;20472;-90
2021/08/27 03:02:57;;;;;;;7.80;5.90;;;13.40;99.90;;;;;;4999491;28;20424;-90
2021/08/27 03:05:43;;;;;;;;;;;;;;;;;;;;;
2021/08/27 03:08:20;;;;;;;4.37;3.83;;;13.30;99.90;;;;;;4995155;28;20197;-90
2021/08/27 03:11:07;;;;;;;4.35;3.42;;;10.50;99.90;;;;;;4974181;28;21003;-90
2021/08/27 03:13:46;;;;;;;7.63;4.70;;;13.40;99.90;;;;;;4972483;28;20407;-90
2021/08/27 03:16:29;;;;;;;4.30;2.90;;;13.50;99.90;;;;;;4974407;28;20205;-91
2021/08/27 03:19:19;;;;;;;3.30;2.60;;;14.60;99.90;;;;;;4975503;28;20922;-90
2021/08/27 03:21:54;;;;;;;5.03;3.47;;;14.90;99.90;;;;;;4974690;28;20410;-91
2021/08/27 03:24:55;;;;;;;3.83;3.47;;;15.20;99.90;;;;;;4979572;28;20421;-90
2021/08/27 03:27:43;;;;;;;2.87;2.70;;;15.30;99.90;;;;;;4995184;28;20416;-90
2021/08/27 03:30:31;;;;;;;2.93;2.60;;;13.20;99.90;;;;;;4977987;28;20421;-89
2021/08/27 03:33:10;;;;;;;3.37;2.90;;;13.40;99.90;;;;;;4978607;28;20448;-90
2021/08/27 03:35:37;;;;;;;3.23;2.43;;;13.80;99.90;;;;;;4975287;28;20468;-90
2021/08/27 03:38:05;;;;;;;3.80;3.50;;;13.20;99.90;;;;;;4993578;28;20452;-90
2021/08/27 03:40:36;;;;;;;2.60;2.40;;;15.90;99.90;;;;;;4981433;28;20178;-90
2021/08/27 03:43:18;;;;;;;3.23;2.73;;;13.20;99.90;;;;;;4966233;28;20418;-90
2021/08/27 03:45:47;;;;;;;6.43;3.10;;;13.70;99.90;;;;;;4978641;28;20422;-89
2021/08/27 03:48:16;;;;;;;6.00;3.60;;;13.80;99.90;;;;;;4957482;28;20432;-90
2021/08/27 03:50:42;;;;;;;6.80;3.70;;;13.20;99.90;;;;;;4976262;28;20408;-89
2021/08/27 03:53:11;;;;;;;6.90;4.80;;;13.20;99.90;;;;;;4996328;28;20385;-88
2021/08/27 03:56:10;;;;;;;7.13;4.20;;;13.30;99.90;;;;;;4994652;28;20431;-89
2021/08/27 03:59:22;;;;;;;12.33;4.87;;;15.10;99.90;;;;;;4979489;28;20226;-88
2021/08/27 04:02:09;;;;;;;5.28;4.50;;;14.70;99.90;;;;;;4977464;28;20383;-90
2021/08/27 04:05:14;;;;;;;5.90;4.80;;;14.50;99.90;;;;;;4981556;28;20483;-90
2021/08/27 04:08:08;;;;;;;6.03;4.30;;;12.50;99.90;;;;;;4979258;28;20517;-90
2021/08/27 04:10:35;;;;;;;3.30;3.10;;;14.50;99.90;;;;;;5002206;28;20270;-89
2021/08/27 04:13:02;;;;;;;4.82;3.33;;;13.50;99.90;;;;;;4958755;28;20412;-89
2021/08/27 04:15:35;;;;;;;3.63;3.33;;;13.70;99.90;;;;;;4974786;28;20428;-89
2021/08/27 04:18:06;;;;;;;8.80;5.73;;;13.70;99.90;;;;;;4972966;28;20410;-89
2021/08/27 04:20:32;;;;;;;6.50;5.35;;;13.80;99.90;;;;;;4971307;28;20453;-89
2021/08/27 04:23:03;;;;;;;5.47;4.30;;;14.90;99.90;;;;;;4979649;28;20177;-90
2021/08/27 04:25:57;;;;;;;3.30;3.10;;;13.90;99.90;;;;;;4980393;28;20212;-90
2021/08/27 04:28:27;;;;;;;8.63;5.03;;;16.60;99.90;;;;;;4985528;28;20430;-90
2021/08/27 04:30:54;;;;;;;3.40;3.10;;;14.10;99.90;;;;;;4978270;28;20093;-89
2021/08/27 04:33:21;;;;;;;6.15;4.40;;;13.70;99.90;;;;;;4978149;28;20432;-89
2021/08/27 04:35:47;;;;;;;4.85;3.92;;;13.80;99.90;;;;;;4961545;28;20547;-90
2021/08/27 04:38:15;;;;;;;5.20;3.97;;;13.90;99.90;;;;;;4959980;28;20768;-89
2021/08/27 04:41:01;;;;;;;8.20;4.22;;;16.60;99.90;;;;;;4994447;28;20420;-90
2021/08/27 04:43:32;;;;;;;3.90;3.60;;;16.60;99.90;;;;;;4976316;28;20907;-90
2021/08/27 04:46:00;;;;;;;4.78;3.60;;;14.90;99.90;;;;;;4993389;28;20397;-89
2021/08/27 04:48:32;;;;;;;6.20;3.37;;;14.30;99.60;;;;;;4992876;28;20491;-88
2021/08/27 04:51:06;;;;;;;5.37;2.90;;;13.90;99.90;;;;;;4990144;28;20384;-90
2021/08/27 04:53:36;;;;;;;;;;;12.70;99.80;;;;;;4989426;28;20765;-88
2021/08/27 04:56:22;;;;;;;;;;;14.10;99.90;;;;;;4986886;28;19918;-90
2021/08/27 04:59:02;;;;;;;6.65;3.35;;;13.90;99.90;;;;;;4969314;28;20471;-90
2021/08/27 05:01:29;;;;;;;;;;;13.80;99.90;;;;;;4976052;28;20027;-91
2021/08/27 05:03:54;;;;;;;;;;;13.50;99.90;;;;;;4973191;28;19913;-90
2021/08/27 05:06:30;;;;;;;7.10;3.10;;;13.70;99.90;;;;;;4974810;28;20419;-91
2021/08/27 05:09:11;;;;;;;6.32;3.47;;;11.50;99.90;;;;;;4972053;28;20404;-90
2021/08/27 05:11:39;;;;;;;6.45;3.50;;;14.10;99.90;;;;;;4989148;28;20437;-90
2021/08/27 05:14:18;;;;;;;4.60;3.50;;;14.10;99.90;;;;;;4988301;28;20470;-89
2021/08/27 05:17:00;;;;;;;5.33;3.07;;;14.50;99.90;;;;;;4978286;28;20173;-91
2021/08/27 05:19:40;;;;;;;2.73;2.40;;;14.20;99.90;;;;;;4992132;28;20173;-89
2021/08/27 05:22:10;;;;;;;9.80;2.90;;;13.90;98.80;;;;;;5006588;28;20811;-89
2021/08/27 05:24:36;;;;;;;7.40;2.67;;;12.40;99.10;;;;;;4993020;28;21013;-90
2021/08/27 05:27:09;;;;;;;5.87;2.70;;;16.70;99.90;;;;;;4992754;28;20452;-91
2021/08/27 05:29:38;;;;;;;10.10;2.20;;;14.30;98.90;;;;;;5008446;28;20177;-91
2021/08/27 05:32:06;;;;;;;4.45;2.80;;;14.20;99.90;;;;;;4987043;28;20466;-90
2021/08/27 05:34:36;;;;;;;;;;;14.30;99.60;;;;;;4638575;28;10000458;-90
2021/08/27 05:37:03;;;;;;;3.00;2.80;;;13.80;99.90;;;;;;4988289;28;20407;-85
2021/08/27 05:39:29;;;;;;;4.00;2.78;;;14.50;98.60;;;;;;4982683;28;20396;-89
2021/08/27 05:41:58;;;;;;;4.80;2.95;;;14.50;98.50;;;;;;4979204;28;20400;-87
2021/08/27 05:44:30;;;;;;;3.85;2.75;;;14.70;99.60;;;;;;4962536;28;20408;-90
2021/08/27 05:46:56;;;;;;;5.30;3.03;;;16.30;97.20;;;;;;4965030;28;20408;-88
2021/08/27 05:49:34;;;;;;;9.20;2.63;;;16.10;97.20;;;;;;4983803;28;20344;-86
2021/08/27 05:52:11;;;;;;;;;;;;;;;;;;;;;
2021/08/27 05:54:38;;;;;;;3.83;2.95;;;15.30;96.40;;;;;;4981295;28;20487;-88
2021/08/27 05:57:04;;;;;;;3.03;2.73;;;16.50;97.00;;;;;;4951629;28;20182;-88
2021/08/27 05:59:30;;;;;;;4.80;2.90;;;15.30;97.00;;;;;;4981806;28;20446;-89
2021/08/27 06:02:05;;;;;;;2.30;1.93;;;15.80;96.10;;;;;;4953248;29;20435;-92
2021/08/27 06:04:31;;;;;;;3.90;3.20;;;15.60;97.30;;;;;;4966115;29;20183;-88
2021/08/27 06:06:58;;;;;;;6.37;2.77;;;15.70;96.90;;;;;;4969513;28;20509;-91
2021/08/27 06:15:31;;;;;;;2.10;1.90;;;15.50;93.90;;;;;;4791001;26;20239;-91
2021/08/27 06:20:39;;;;;;;5.47;2.47;;;15.20;98.70;;;;;;5527572;23;20236;-90
2021/08/27 06:28:17;;;;;;;9.10;5.83;;;15.60;93.90;;;;;;5086642;23;20497;-88
2021/08/27 06:33:31;;;;;;;3.50;2.10;;;15.70;93.80;;;;;;4987175;23;20476;-90
2021/08/27 06:35:59;;;;;;;2.83;2.10;;;17.20;94.80;;;;;;5009149;28;21050;-90
2021/08/27 06:38:26;;;;;;;5.27;2.97;;;16.30;94.90;;;;;;5258381;23;21595;-88
2021/08/27 06:41:02;;;;;;;3.67;2.43;;;18.00;95.60;;;;;;5013765;28;20460;-90
2021/08/27 06:44:01;;;;;;;;;;;;;;;;;;;;;
2021/08/27 06:46:46;;;;;;;5.60;1.90;;;19.40;94.20;;;;;;5258410;23;20564;-91
2021/08/27 06:52:47;;;;;;;;;;;;;;;;;;;;;
2021/08/27 06:55:22;;;;;;;3.07;1.73;;;19.20;90.20;;;;;;5178120;23;20870;-89
2021/08/27 06:57:51;;;;;;;6.73;2.33;;;19.30;91.60;;;;;;4990515;28;20448;-90
2021/08/27 07:03:04;;;;;;;4.97;2.47;;;17.20;86.60;;;;;;5013356;23;20987;-91
2021/08/27 07:05:30;;;;;;;2.20;2.00;;;18.90;92.70;;;;;;4994228;28;20535;-89
2021/08/27 07:08:28;;;;;;;5.30;3.03;;;17.10;89.60;;;;;;5349382;23;20506;-91
2021/08/27 07:10:55;;;;;;;3.43;2.30;;;17.90;91.60;;;;;;4955430;29;20190;-92
2021/08/27 07:13:21;;;;;;;5.00;2.77;;;18.80;92.40;;;;;;4955873;29;20430;-91
2021/08/27 07:15:48;;;;;;;3.37;3.00;;;18.20;92.70;;;;;;4950325;28;20473;-91
2021/08/27 07:18:37;;;;;;;3.43;2.80;;;17.70;90.80;;;;;;4970548;28;20423;-91
2021/08/27 07:21:11;;;;;;;4.30;3.67;;;18.10;91.10;;;;;;4958084;29;20422;-90
2021/08/27 07:23:37;;;;;;;5.40;4.23;;;15.20;88.70;;;;;;4971948;28;20429;-91
2021/08/27 07:26:16;;;;;;;4.60;3.60;;;16.60;92.30;;;;;;4972212;28;20446;-89
2021/08/27 07:28:52;;;;;;;6.30;3.40;;;18.90;94.40;;;;;;4955482;29;20422;-87
2021/08/27 07:31:20;;;;;;;6.80;3.90;;;17.10;92.50;;;;;;4953528;29;20413;-90
2021/08/27 07:33:45;;;;;;;6.07;4.00;;;17.00;90.50;;;;;;4927090;29;20414;-86
2021/08/27 07:36:11;;;;;;;5.60;3.63;;;18.40;90.60;;;;;;4960444;29;20418;-86
2021/08/27 07:38:38;;;;;;;3.67;3.47;;;18.10;89.60;;;;;;4957233;28;20166;-87
2021/08/27 07:41:03;;;;;;;6.20;3.93;;;17.20;87.50;;;;;;4958787;28;20179;-86
2021/08/27 07:43:29;;;;;;;3.60;3.40;;;17.30;86.60;;;;;;4958610;29;20417;-86
2021/08/27 07:45:57;;;;;;;4.40;4.10;;;17.80;86.20;;;;;;4958553;28;20615;-86
2021/08/27 07:48:27;;;;;;;7.93;3.03;;;18.10;83.90;;;;;;4959115;29;20174;-87
2021/08/27 07:50:55;;;;;;;4.93;3.60;;;18.20;83.70;;;;;;4692815;29;10001216;-87
2021/08/27 07:53:22;;;;;;;7.80;3.70;;;18.00;81.10;;;;;;4956005;28;20473;-86
2021/08/27 07:55:51;;;;;;;3.10;2.90;;;18.40;81.30;;;;;;4949489;29;20671;-86
2021/08/27 07:58:18;;;;;;;2.80;2.70;;;18.50;82.10;;;;;;4938433;29;20502;-86
2021/08/27 08:00:45;;;;;;;2.97;2.70;;;18.40;81.30;;;;;;4921313;29;20438;-86
2021/08/27 08:03:11;;;;;;;3.50;2.60;;;18.30;81.50;;;;;;4936129;29;21225;-86
2021/08/27 08:05:37;;;;;;;4.97;2.60;;;18.10;81.40;;;;;;4919881;29;20548;-86
2021/08/27 08:08:02;;;;;;;3.10;3.00;;;18.00;82.40;;;;;;4941080;28;20240;-86
2021/08/27 08:10:28;;;;;;;4.43;2.17;;;17.80;82.70;;;;;;4954552;28;20178;-85
2021/08/27 08:12:53;;;;;;;7.23;2.43;;;17.80;82.90;;;;;;4955608;28;20200;-86
2021/08/27 08:15:22;;;;;;;5.00;2.50;;;18.20;84.20;;;;;;4962809;29;20561;-89
2021/08/27 08:17:48;;;;;;;9.13;3.37;;;18.20;83.10;;;;;;4949526;29;20190;-89
2021/08/27 08:20:21;;;;;;;5.83;2.47;;;19.20;82.60;;;;;;4967653;29;20759;-91
2021/08/27 08:22:49;;;;;;;2.00;1.90;;;16.60;77.30;;;;;;4976131;28;20174;-91
2021/08/27 08:25:25;;;;;;;;;;;;;;;;;;;;;
2021/08/27 08:27:55;;;;;;;2.67;2.03;;;18.70;82.50;;;;;;4986964;28;20453;-93
2021/08/27 08:30:20;;;;;;;5.83;4.70;;;18.90;82.50;;;;;;4966442;29;20427;-92
2021/08/27 08:32:49;;;;;;;4.27;3.07;;;20.60;86.40;;;;;;4937387;29;20423;-89
2021/08/27 08:35:17;;;;;;;2.87;2.10;;;19.00;80.10;;;;;;4968423;29;20469;-90
2021/08/27 08:37:43;;;;;;;4.63;2.37;;;18.30;81.80;;;;;;4967856;29;20426;-90
2021/08/27 08:40:20;;;;;;;3.40;2.50;;;20.00;82.50;;;;;;4967259;29;20541;-91
2021/08/27 08:43:03;;;;;;;2.30;2.07;;;19.10;88.20;;;;;;4970398;28;20245;-91
2021/08/27 08:45:34;;;;;;;3.53;2.17;;;20.30;83.00;;;;;;4958205;29;20433;-91
2021/08/27 08:48:07;;;;;;;2.50;2.30;;;18.90;82.70;;;;;;4966857;29;20417;-89
2021/08/27 08:50:35;;;;;;;3.20;2.47;;;18.90;80.10;;;;;;4967304;28;20414;-91
2021/08/27 08:53:03;;;;;;;2.80;2.10;;;20.60;82.20;;;;;;4960924;28;20922;-88
2021/08/27 08:55:29;;;;;;;3.30;1.97;;;21.10;82.30;;;;;;4964965;28;20488;-87
2021/08/27 08:58:09;;;;;;;2.73;2.17;;;17.00;80.00;;;;;;4969807;28;20599;-85
2021/08/27 09:00:40;;;;;;;8.53;2.73;;;21.30;84.70;;;;;;4968464;28;20527;-91
2021/08/27 09:03:06;;;;;;;4.33;2.77;;;20.20;83.80;;;;;;4982652;28;20452;-89
2021/08/27 09:05:34;;;;;;;2.40;2.20;;;19.40;86.40;;;;;;5001426;28;20425;-89
2021/08/27 09:07:59;;;;;;;5.57;2.80;;;19.10;82.80;;;;;;4981494;28;20488;-84
2021/08/27 09:10:28;;;;;;;3.30;3.00;;;21.40;81.60;;;;;;5000245;28;20412;-90
2021/08/27 09:13:06;;;;;;;1.70;1.63;;;20.50;86.90;;;;;;4997850;28;20466;-85
2021/08/27 09:15:31;;;;;;;4.43;2.20;;;20.80;73.70;;;;;;4998207;28;20483;-87
2021/08/27 09:17:57;;;;;;;2.30;1.93;;;22.00;65.30;;;;;;4999862;28;20408;-87
2021/08/27 09:20:28;;;;;;;1.63;1.53;;;22.60;63.30;;;;;;4986034;28;20189;-85
2021/08/27 09:23:06;;;;;;;2.57;2.03;;;23.80;58.80;;;;;;4981791;28;20205;-86
2021/08/27 09:25:35;;;;;;;4.53;2.37;;;24.80;56.60;;;;;;4982898;28;20421;-84
2021/08/27 09:28:13;;;;;;;2.53;2.27;;;25.30;55.30;;;;;;4985313;28;20425;-88
2021/08/27 09:30:55;;;;;;;8.43;3.70;;;24.50;55.30;;;;;;4981924;28;20476;-87
2021/08/27 09:33:26;;;;;;;4.13;2.60;;;23.60;58.90;;;;;;4964048;28;20418;-88
2021/08/27 09:35:58;;;;;;;5.93;2.60;;;22.50;59.50;;;;;;4962885;28;20478;-87
2021/08/27 09:38:38;;;;;;;1.83;1.73;;;21.50;64.20;;;;;;4980696;28;20417;-89
2021/08/27 09:41:06;;;;;;;8.30;2.13;;;20.40;66.90;;;;;;4980367;28;20418;-88
2021/08/27 09:43:46;;;;;;;2.53;1.70;;;19.20;72.60;;;;;;4980965;28;20469;-88
2021/08/27 09:46:36;;;;;;;2.70;2.03;;;22.00;77.30;;;;;;4980989;28;20410;-88
2021/08/27 09:49:07;;;;;;;1.87;1.43;;;22.50;67.80;;;;;;4976863;28;20516;-87
2021/08/27 09:51:49;;;;;;;1.97;1.80;;;22.60;62.70;;;;;;4962952;28;20409;-88
2021/08/27 09:54:35;;;;;;;6.43;1.70;;;24.30;59.70;;;;;;4960669;28;20469;-85
2021/08/27 09:57:34;;;;;;;2.43;1.93;;;24.90;59.40;;;;;;4946778;28;20433;-87
2021/08/27 10:00:09;;;;;;;2.20;2.10;;;24.60;56.50;;;;;;4978294;28;20440;-86
2021/08/27 10:02:39;;;;;;;3.60;3.07;;;25.50;59.10;;;;;;4979781;28;20821;-85
2021/08/27 10:05:08;;;;;;;3.43;2.00;;;22.60;59.70;;;;;;4963323;28;20445;-85
2021/08/27 10:07:48;;;;;;;7.23;2.37;;;20.90;63.80;;;;;;4981423;28;20484;-90
2021/08/27 10:10:26;;;;;;;3.40;1.57;;;21.00;70.50;;;;;;4963431;28;20773;-90
2021/08/27 10:12:55;;;;;;;4.57;2.60;;;21.30;75.00;;;;;;4962747;28;20433;-89
2021/08/27 10:15:30;;;;;;;5.40;2.30;;;20.90;80.40;;;;;;4965988;28;20469;-91
2021/08/27 10:17:56;;;;;;;3.60;2.00;;;19.30;81.90;;;;;;4964385;28;20456;-91
2021/08/27 10:20:28;;;;;;;5.10;2.60;;;19.40;82.80;;;;;;4964140;28;20421;-86
2021/08/27 10:23:18;;;;;;;2.17;1.97;;;20.30;83.00;;;;;;4966566;28;20174;-89
2021/08/27 10:25:52;;;;;;;2.10;1.97;;;22.40;80.10;;;;;;4964561;28;20422;-90
2021/08/27 10:28:38;;;;;;;5.00;1.83;;;22.70;73.90;;;;;;4975082;28;20408;-90
2021/08/27 10:31:32;;;;;;;2.73;2.53;;;24.20;70.00;;;;;;4982422;28;20413;-91
2021/08/27 10:33:58;;;;;;;2.40;2.30;;;25.10;64.70;;;;;;4992575;28;20613;-89
2021/08/27 10:36:30;;;;;;;1.90;1.80;;;25.40;60.50;;;;;;4983440;28;20788;-90
2021/08/27 10:38:59;;;;;;;3.77;3.67;;;25.70;57.70;;;;;;4982968;28;20169;-88
2021/08/27 10:41:41;;;;;;;2.80;2.20;;;24.90;59.50;;;;;;5001888;28;20544;-86
2021/08/27 10:44:09;;;;;;;3.87;3.67;;;23.80;59.00;;;;;;5001380;28;20421;-88
2021/08/27 10:46:46;;;;;;;2.93;2.73;;;23.20;62.30;;;;;;4993758;28;20429;-89
2021/08/27 10:49:48;;;;;;;2.30;1.90;;;22.20;66.10;;;;;;4981395;28;20409;-89
2021/08/27 10:52:34;;;;;;;2.50;2.30;;;22.20;71.90;;;;;;4981724;28;20413;-86
2021/08/27 10:55:03;;;;;;;2.43;1.63;;;21.20;69.60;;;;;;4962405;28;21063;-85
2021/08/27 10:57:29;;;;;;;3.80;2.00;;;21.10;71.30;;;;;;4995124;28;20409;-84
2021/08/27 11:00:00;;;;;;;2.60;1.47;;;22.60;75.60;;;;;;4970178;28;20424;-86
2021/08/27 11:02:51;;;;;;;1.65;1.55;;;20.50;74.50;;;;;;4290639;28;10000695;-88
2021/08/27 11:05:38;;;;;;;3.77;2.20;;;20.00;77.20;;;;;;4961807;28;20182;-88
2021/08/27 11:08:07;;;;;;;1.97;1.87;;;19.80;78.50;;;;;;4963711;28;20461;-88
2021/08/27 11:10:35;;;;;;;3.33;1.67;;;20.00;81.00;;;;;;4943660;28;20456;-81
2021/08/27 11:13:24;;;;;;;;;;;;;;;;;;;;;
2021/08/27 11:15:50;;;;;;;1.40;1.30;;;22.10;71.90;;;;;;4975985;28;20531;-90
2021/08/27 11:18:24;;;;;;;1.73;1.63;;;23.20;69.00;;;;;;4976554;28;20441;-89
2021/08/27 11:20:54;;;;;;;2.03;1.50;;;24.90;63.80;;;;;;4961371;28;20209;-91
2021/08/27 11:23:24;;;;;;;3.40;1.60;;;26.50;58.20;;;;;;4980165;28;20435;-87
2021/08/27 11:26:06;;;;;;;2.63;1.90;;;27.00;55.30;;;;;;4984548;28;20484;-85
2021/08/27 11:28:33;;;;;;;1.67;1.47;;;28.30;53.10;;;;;;4980852;28;20488;-87
2021/08/27 11:31:12;;;;;;;2.53;1.67;;;28.40;51.90;;;;;;4999364;28;20401;-90
2021/08/27 11:33:44;;;;;;;2.77;2.67;;;28.40;51.00;;;;;;4998061;28;20423;-89
2021/08/27 11:36:32;;;;;;;1.67;1.60;;;29.60;51.10;;;;;;4981553;28;20480;-90
2021/08/27 11:39:02;;;;;;;3.03;2.23;;;29.40;48.50;;;;;;4999665;28;20420;-87
2021/08/27 11:41:31;;;;;;;2.87;2.67;;;30.10;49.10;;;;;;4981088;28;20424;-90
2021/08/27 11:44:04;;;;;;;4.70;4.50;;;30.60;48.70;;;;;;4996685;28;20420;-86
2021/08/27 11:46:32;;;;;;;1.40;1.40;;;31.80;46.30;;;;;;4988305;28;20411;-84
2021/08/27 11:49:27;;;;;;;1.47;1.47;;;32.70;43.20;;;;;;4986926;28;20420;-87
2021/08/27 11:52:15;;;;;;;2.93;2.80;;;33.60;41.00;;;;;;4985622;28;20495;-90
2021/08/27 11:54:41;;;;;;;1.20;1.20;;;33.90;39.40;;;;;;4990714;28;20467;-87
2021/08/27 11:57:30;;;;;;;1.37;1.30;;;33.90;39.00;;;;;;4968774;28;20820;-88
2021/08/27 12:00:08;;;;;;;3.67;1.80;;;33.90;39.90;;;;;;4986589;28;20417;-88
2021/08/27 12:02:38;;;;;;;2.03;1.73;;;31.10;40.70;;;;;;5003795;28;20428;-91
2021/08/27 12:05:27;;;;;;;1.67;1.53;;;29.10;43.20;;;;;;4967867;28;20472;-89
2021/08/27 12:08:05;;;;;;;1.37;1.37;;;25.00;46.20;;;;;;4987985;28;20447;-89
2021/08/27 12:10:41;;;;;;;1.40;1.30;;;26.10;50.00;;;;;;4986093;28;20483;-90
2021/08/27 12:13:14;;;;;;;1.30;1.20;;;25.80;52.60;;;;;;4969192;28;20520;-89
2021/08/27 12:15:44;;;;;;;3.27;2.10;;;23.50;52.50;;;;;;4984215;28;20828;-89
2021/08/27 12:18:14;;;;;;;2.07;2.00;;;24.70;55.50;;;;;;4965797;28;20430;-87
2021/08/27 12:20:52;;;;;;;3.13;2.77;;;23.90;56.90;;;;;;4966085;28;20410;-87
2021/08/27 12:23:22;;;;;;;8.23;5.43;;;21.80;59.10;;;;;;4963958;28;20445;-84
2021/08/27 12:26:08;;;;;;;2.73;2.50;;;20.70;64.80;;;;;;4974690;28;20429;-87
2021/08/27 12:28:38;;;;;;;2.40;2.03;;;19.30;69.40;;;;;;4957675;28;20433;-84
2021/08/27 12:31:07;;;;;;;2.40;2.20;;;19.80;73.80;;;;;;4982802;28;20405;-85
2021/08/27 12:33:38;;;;;;;4.00;2.00;;;21.00;81.70;;;;;;4981112;28;20433;-82
2021/08/27 12:36:24;;;;;;;3.10;2.57;;;19.70;81.70;;;;;;4983536;28;20475;-92
2021/08/27 12:38:53;;;;;;;4.80;2.47;;;19.70;82.60;;;;;;4986135;28;20435;-91
2021/08/27 12:41:22;;;;;;;2.10;1.90;;;19.50;86.30;;;;;;4621036;28;10000511;-86
2021/08/27 12:43:49;;;;;;;7.50;3.47;;;20.80;86.30;;;;;;4963404;29;20481;-88
2021/08/27 12:46:33;;;;;;;2.13;2.03;;;21.20;89.20;;;;;;4945773;29;20414;-90
2021/08/27 12:49:16;;;;;;;5.10;2.73;;;19.20;91.00;;;;;;4961881;28;20425;-86
2021/08/27 12:51:50;;;;;;;2.23;2.10;;;19.10;90.80;;;;;;4946643;29;20421;-85
2021/08/27 12:54:18;;;;;;;5.03;2.90;;;19.10;93.30;;;;;;4972876;28;20928;-89
2021/08/27 12:56:57;;;;;;;2.50;2.27;;;18.80;95.00;;;;;;4981651;28;20426;-86
2021/08/27 12:59:25;;;;;;;9.13;3.53;;;20.60;94.00;;;;;;4987222;28;20428;-88
2021/08/27 13:02:03;;;;;;;6.70;3.20;;;18.20;96.20;;;;;;4967630;28;20454;-88
2021/08/27 13:04:45;;;;;;;6.13;4.47;;;18.00;95.80;;;;;;4970233;28;20402;-83
2021/08/27 13:07:25;;;;;;;6.70;3.63;;;17.90;97.90;;;;;;4955809;29;20478;-88
2021/08/27 13:10:08;;;;;;;3.00;2.70;;;17.50;98.20;;;;;;4957441;28;20497;-84
2021/08/27 13:12:37;;;;;;;3.90;3.23;;;18.10;99.20;;;;;;4956951;29;20458;-88
2021/08/27 13:15:30;;;;;;;6.63;4.30;;;19.80;99.90;;;;;;4956019;29;20462;-82
2021/08/27 13:18:04;;;;;;;6.97;3.30;;;16.80;99.90;;;;;;4973094;29;20453;-86
2021/08/27 13:20:34;;;;;;;3.20;3.00;;;19.30;99.90;;;;;;4953740;28;20904;-88
2021/08/27 13:23:19;;;;;;;3.67;3.20;;;19.80;99.90;;;;;;4949799;29;20495;-89
2021/08/27 13:26:03;;;;;;;4.70;2.23;;;19.70;99.90;;;;;;4953611;29;20450;-90
2021/08/27 13:28:31;;;;;;;2.53;2.43;;;20.00;99.90;;;;;;4951475;29;20422;-87
2021/08/27 13:31:09;;;;;;;2.63;2.50;;;18.30;96.70;;;;;;4968406;29;20402;-89
2021/08/27 13:33:39;;;;;;;2.83;2.40;;;18.50;97.90;;;;;;4948984;29;20767;-84
2021/08/27 13:36:07;;;;;;;2.23;2.13;;;20.40;98.60;;;;;;4962496;29;20687;-85
2021/08/27 13:38:32;;;;;;;13.50;2.60;;;20.10;97.80;;;;;;4945089;29;20414;-86
2021/08/27 13:40:58;;;;;;;2.17;2.07;;;19.50;95.40;;;;;;4962200;29;21042;-85
2021/08/27 13:43:24;;;;;;;3.70;1.90;;;19.30;96.10;;;;;;4619582;28;9999828;-84
2021/08/27 13:45:52;;;;;;;2.23;2.20;;;19.50;95.70;;;;;;4941884;29;20175;-82
2021/08/27 13:48:22;;;;;;;1.40;1.40;;;20.70;95.40;;;;;;4943795;29;20441;-86
2021/08/27 13:50:50;;;;;;;2.23;2.03;;;21.70;89.80;;;;;;4943117;29;20933;-87
2021/08/27 13:53:16;;;;;;;1.30;1.30;;;23.00;80.00;;;;;;4958119;28;20422;-86